createdAt,value
2018-06-01T00:01:33.874Z,93.90
2018-06-01T00:05:27.017Z,94.20
2018-06-01T00:09:20.971Z,94.20
2018-06-01T00:13:14.143Z,94.20
2018-06-01T00:17:08.131Z,94.50
2018-06-01T00:21:01.841Z,94.50
2018-06-01T00:24:55.768Z,94.80
2018-06-01T00:28:49.092Z,94.80
2018-06-01T00:32:45.780Z,95.00
2018-06-01T00:36:38.983Z,95.40
2018-06-01T00:40:32.937Z,95.30
2018-06-01T00:44:26.453Z,95.20
2018-06-01T00:48:19.631Z,95.30
2018-06-01T00:52:13.686Z,95.70
2018-06-01T00:56:06.837Z,95.70
2018-06-01T01:00:00.087Z,95.70
2018-06-01T01:03:54.218Z,95.80
2018-06-01T01:07:47.636Z,95.80
2018-06-01T01:11:40.760Z,95.80
2018-06-01T01:15:34.661Z,96.20
2018-06-01T01:19:27.787Z,96.20
2018-06-01T01:23:20.955Z,96.30
2018-06-01T01:27:14.187Z,96.30
2018-06-01T01:31:07.331Z,96.40
2018-06-01T01:35:00.495Z,96.30
2018-06-01T01:38:53.615Z,96.50
2018-06-01T01:42:46.787Z,96.60
2018-06-01T01:46:40.122Z,96.40
2018-06-01T01:50:33.224Z,96.40
2018-06-01T01:54:27.342Z,96.60
2018-06-01T01:58:20.518Z,96.70
2018-06-01T02:02:13.764Z,96.60
2018-06-01T02:06:07.235Z,96.30
2018-06-01T02:10:00.550Z,96.40
2018-06-01T02:13:53.705Z,96.10
2018-06-01T02:17:46.851Z,95.70
2018-06-01T02:21:39.992Z,96.40
2018-06-01T02:25:33.199Z,96.50
2018-06-01T02:29:26.343Z,96.70
2018-06-01T02:33:19.483Z,96.90
2018-06-01T02:37:13.558Z,97.10
2018-06-01T02:41:06.755Z,97.10
2018-06-01T02:45:00.488Z,97.20
2018-06-01T02:48:55.922Z,97.20
2018-06-01T02:52:49.764Z,97.20
2018-06-01T02:56:42.953Z,97.20
2018-06-01T03:00:36.593Z,97.20
2018-06-01T03:04:29.797Z,97.30
2018-06-01T03:08:23.349Z,97.00
2018-06-01T03:12:16.624Z,97.10
2018-06-01T03:16:11.869Z,97.40
2018-06-01T03:20:05.808Z,97.70
2018-06-01T03:23:59.837Z,97.70
2018-06-01T03:27:53.759Z,98.00
2018-06-01T03:31:46.920Z,97.90
2018-06-01T03:35:40.568Z,97.60
2018-06-01T03:39:35.172Z,97.40
2018-06-01T03:43:28.359Z,97.40
2018-06-01T03:47:21.539Z,97.20
2018-06-01T03:51:14.656Z,97.10
2018-06-01T03:59:32.014Z,97.20
2018-06-01T04:03:25.280Z,97.10
2018-06-01T04:07:19.243Z,97.20
2018-06-01T04:11:12.926Z,97.00
2018-06-01T04:15:06.055Z,97.20
2018-06-01T04:18:59.454Z,97.10
2018-06-01T04:22:52.605Z,97.10
2018-06-01T04:26:45.765Z,97.10
2018-06-01T04:30:38.902Z,97.20
2018-06-01T04:34:32.103Z,97.10
2018-06-01T04:38:25.295Z,96.90
2018-06-01T04:42:19.173Z,96.70
2018-06-01T04:46:12.572Z,96.70
2018-06-01T04:50:09.667Z,96.50
2018-06-01T04:54:02.839Z,96.50
2018-06-01T04:57:56.459Z,96.90
2018-06-01T05:01:51.217Z,97.10
2018-06-01T05:05:44.867Z,96.70
2018-06-01T05:09:38.040Z,96.20
2018-06-01T05:13:31.161Z,95.90
2018-06-01T05:17:25.095Z,95.50
2018-06-01T05:21:18.772Z,95.50
2018-06-01T05:25:12.226Z,95.90
2018-06-01T05:29:05.361Z,96.20
2018-06-01T05:33:01.768Z,96.40
2018-06-01T05:36:55.026Z,96.30
2018-06-01T05:40:48.144Z,96.40
2018-06-01T05:44:41.272Z,96.40
2018-06-01T05:48:34.561Z,96.50
2018-06-01T05:52:28.495Z,97.00
2018-06-01T05:56:23.220Z,97.40
2018-06-01T06:00:16.457Z,97.40
2018-06-01T06:04:09.679Z,97.20
2018-06-01T06:08:03.236Z,97.90
2018-06-01T06:11:57.491Z,99.90
2018-06-01T06:15:50.891Z,99.90
2018-06-01T06:19:44.033Z,99.90
2018-06-01T06:23:37.203Z,99.90
2018-06-01T06:27:30.597Z,99.90
2018-06-01T06:31:24.418Z,99.90
2018-06-01T06:35:17.566Z,99.90
2018-06-01T06:39:11.601Z,99.90
2018-06-01T06:43:06.070Z,99.90
2018-06-01T06:46:59.197Z,99.90
2018-06-01T06:50:53.301Z,99.90
2018-06-01T06:54:47.223Z,99.90
2018-06-01T06:58:41.460Z,99.90
2018-06-01T07:02:34.677Z,99.90
2018-06-01T07:06:28.558Z,99.90
2018-06-01T07:10:21.692Z,99.90
2018-06-01T07:14:15.572Z,99.90
2018-06-01T07:18:09.780Z,99.90
2018-06-01T07:22:03.453Z,99.90
2018-06-01T07:25:57.241Z,99.90
2018-06-01T07:29:51.434Z,99.90
2018-06-01T07:33:44.585Z,99.90
2018-06-01T07:37:37.821Z,99.90
2018-06-01T07:41:31.035Z,99.90
2018-06-01T07:45:24.251Z,99.90
2018-06-01T07:49:17.536Z,99.90
2018-06-01T07:53:10.727Z,99.90
2018-06-01T07:57:03.904Z,99.90
2018-06-01T08:00:57.213Z,99.90
2018-06-01T08:04:51.747Z,99.90
2018-06-01T08:08:46.919Z,99.90
2018-06-01T08:12:41.552Z,99.90
2018-06-01T08:16:34.738Z,99.90
2018-06-01T08:20:27.887Z,99.90
2018-06-01T08:24:21.088Z,99.90
2018-06-01T08:28:14.227Z,99.90
2018-06-01T08:32:07.371Z,99.90
2018-06-01T08:36:00.931Z,99.90
2018-06-01T08:39:54.956Z,99.90
2018-06-01T08:43:48.448Z,99.90
2018-06-01T08:47:41.644Z,99.90
2018-06-01T08:51:34.849Z,99.90
2018-06-01T08:55:28.077Z,99.90
2018-06-01T08:59:21.252Z,99.90
2018-06-01T09:03:14.407Z,99.90
2018-06-01T09:07:07.884Z,99.90
2018-06-01T09:11:01.373Z,99.90
2018-06-01T09:14:54.966Z,99.90
2018-06-01T09:18:48.694Z,99.90
2018-06-01T09:22:41.976Z,99.90
2018-06-01T09:26:35.229Z,99.90
2018-06-01T09:30:28.343Z,99.90
2018-06-01T09:34:21.556Z,99.90
2018-06-01T09:38:14.760Z,99.90
2018-06-01T09:42:07.970Z,99.90
2018-06-01T09:46:01.206Z,99.90
2018-06-01T09:49:54.900Z,99.90
2018-06-01T09:53:48.142Z,99.90
2018-06-01T09:57:41.309Z,99.90
2018-06-01T10:01:34.486Z,99.90
2018-06-01T10:05:27.645Z,99.90
2018-06-01T10:09:25.560Z,99.90
2018-06-01T10:13:18.719Z,99.90
2018-06-01T10:17:12.599Z,99.90
2018-06-01T10:21:06.976Z,99.90
2018-06-01T10:25:04.740Z,99.90
2018-06-01T10:29:05.027Z,99.90
2018-06-01T10:33:02.118Z,99.90
2018-06-01T10:36:55.301Z,99.90
2018-06-01T10:40:49.298Z,99.90
2018-06-01T10:44:42.441Z,99.90
2018-06-01T10:48:35.621Z,99.20
2018-06-01T10:52:29.500Z,99.10
2018-06-01T10:56:24.941Z,96.90
2018-06-01T11:00:18.225Z,96.30
2018-06-01T11:04:11.441Z,95.30
2018-06-01T11:08:04.852Z,95.70
2018-06-01T11:11:58.062Z,94.90
2018-06-01T11:15:52.347Z,93.80
2018-06-01T11:19:45.596Z,92.50
2018-06-01T11:23:38.797Z,92.40
2018-06-01T11:27:32.554Z,90.80
2018-06-01T11:31:25.751Z,88.70
2018-06-01T11:35:18.935Z,89.00
2018-06-01T11:39:13.203Z,87.80
2018-06-01T11:43:07.080Z,86.50
2018-06-01T11:47:01.956Z,86.40
2018-06-01T11:50:55.226Z,85.40
2018-06-01T11:54:48.515Z,85.70
2018-06-01T11:58:50.998Z,84.90
2018-06-01T12:02:44.993Z,84.60
2018-06-01T12:06:46.126Z,83.80
2018-06-01T12:10:39.310Z,82.20
2018-06-01T12:14:34.641Z,83.40
2018-06-01T12:18:29.097Z,83.80
2018-06-01T12:22:23.010Z,84.90
2018-06-01T12:26:17.428Z,84.10
2018-06-01T12:30:12.169Z,80.30
2018-06-01T12:34:06.347Z,80.30
2018-06-01T12:38:00.601Z,79.50
2018-06-01T12:41:54.232Z,79.50
2018-06-01T12:45:48.368Z,80.50
2018-06-01T12:49:41.724Z,80.50
2018-06-01T12:53:34.870Z,79.90
2018-06-01T12:57:29.052Z,80.90
2018-06-01T13:01:22.984Z,77.40
2018-06-01T13:05:20.269Z,77.30
2018-06-01T13:09:13.628Z,79.40
2018-06-01T13:13:06.888Z,78.40
2018-06-01T13:17:02.431Z,79.10
2018-06-01T13:20:58.038Z,74.50
2018-06-01T13:24:51.575Z,75.10
2018-06-01T13:28:44.776Z,74.10
2018-06-01T13:32:38.487Z,73.20
2018-06-01T13:36:32.677Z,72.20
2018-06-01T13:40:26.585Z,71.70
2018-06-01T13:44:19.805Z,71.60
2018-06-01T13:48:12.977Z,72.00
2018-06-01T13:52:06.898Z,75.70
2018-06-01T13:56:01.669Z,78.00
2018-06-01T13:59:55.816Z,77.90
2018-06-01T14:03:49.123Z,78.90
2018-06-01T14:07:42.951Z,79.30
2018-06-01T14:11:36.378Z,79.50
2018-06-01T14:15:29.640Z,79.40
2018-06-01T14:19:23.327Z,80.60
2018-06-01T14:23:17.254Z,78.70
2018-06-01T14:27:10.479Z,78.60
2018-06-01T14:31:03.615Z,78.60
2018-06-01T14:34:56.788Z,79.20
2018-06-01T14:38:50.844Z,80.20
2018-06-01T14:42:43.987Z,81.80
2018-06-01T14:46:37.960Z,81.30
2018-06-01T14:50:31.153Z,82.20
2018-06-01T14:54:24.367Z,83.90
2018-06-01T14:58:17.454Z,88.30
2018-06-01T15:02:13.897Z,90.30
2018-06-01T15:06:08.090Z,90.50
2018-06-01T15:10:02.033Z,90.50
2018-06-01T15:13:55.218Z,91.50
2018-06-01T15:17:48.418Z,92.00
2018-06-01T15:21:42.255Z,92.50
2018-06-01T15:25:38.125Z,93.10
2018-06-01T15:29:32.150Z,93.80
2018-06-01T15:33:26.902Z,94.50
2018-06-01T15:37:20.079Z,97.10
2018-06-01T15:41:13.975Z,98.80
2018-06-01T15:45:07.188Z,98.90
2018-06-01T15:49:00.320Z,99.90
2018-06-01T15:52:53.517Z,99.90
2018-06-01T15:56:47.683Z,99.90
2018-06-01T16:00:40.819Z,99.90
2018-06-01T16:04:33.973Z,99.60
2018-06-01T16:08:27.639Z,99.20
2018-06-01T16:12:20.838Z,99.30
2018-06-01T16:16:14.147Z,99.10
2018-06-01T16:20:09.108Z,99.70
2018-06-01T16:24:02.497Z,99.70
2018-06-01T16:27:56.579Z,99.50
2018-06-01T16:31:51.129Z,99.60
2018-06-01T16:35:44.656Z,99.60
2018-06-01T16:39:38.478Z,99.60
2018-06-01T16:43:33.141Z,98.60
2018-06-01T16:47:30.271Z,98.60
2018-06-01T16:51:23.574Z,98.30
2018-06-01T16:55:17.463Z,98.10
2018-06-01T16:59:10.644Z,98.00
2018-06-01T17:03:03.789Z,98.00
2018-06-01T17:06:57.512Z,97.90
2018-06-01T17:10:51.908Z,97.90
2018-06-01T17:14:45.205Z,97.90
2018-06-01T17:18:38.573Z,97.70
2018-06-01T17:22:32.942Z,98.00
2018-06-01T17:26:26.422Z,97.80
2018-06-01T17:30:19.760Z,97.40
2018-06-01T17:34:13.092Z,97.20
2018-06-01T17:38:06.254Z,97.50
2018-06-01T17:41:59.452Z,97.40
2018-06-01T17:45:52.627Z,97.00
2018-06-01T17:49:45.782Z,97.70
2018-06-01T17:53:39.036Z,96.70
2018-06-01T17:57:32.271Z,97.00
2018-06-01T18:01:25.415Z,97.30
2018-06-01T18:05:18.553Z,97.30
2018-06-01T18:09:12.721Z,97.40
2018-06-01T18:13:05.947Z,97.30
2018-06-01T18:16:59.155Z,97.60
2018-06-01T18:20:54.156Z,98.70
2018-06-01T18:24:48.563Z,98.90
2018-06-01T18:28:43.355Z,99.50
2018-06-01T18:32:37.759Z,99.30
2018-06-01T18:36:31.011Z,99.20
2018-06-01T18:40:24.671Z,99.40
2018-06-01T18:44:18.159Z,99.30
2018-06-01T18:48:11.708Z,99.20
2018-06-01T18:52:04.934Z,99.50
2018-06-01T18:56:01.531Z,99.10
2018-06-01T18:59:55.000Z,99.70
2018-06-01T19:03:48.630Z,99.60
2018-06-01T19:07:42.654Z,99.40
2018-06-01T19:11:36.067Z,99.30
2018-06-01T19:15:30.096Z,99.30
2018-06-01T19:19:24.197Z,99.00
2018-06-01T19:23:18.401Z,98.40
2018-06-01T19:27:11.870Z,99.00
2018-06-01T19:31:05.765Z,98.60
2018-06-01T19:34:59.867Z,98.40
2018-06-01T19:38:53.836Z,98.30
2018-06-01T19:42:47.607Z,98.30
2018-06-01T19:46:40.717Z,98.80
2018-06-01T19:50:34.228Z,98.80
2018-06-01T19:54:27.376Z,98.60
2018-06-01T19:58:20.657Z,98.60
2018-06-01T20:02:13.801Z,98.80
2018-06-01T20:06:08.183Z,98.70
2018-06-01T20:10:01.459Z,98.80
2018-06-01T20:13:54.582Z,98.60
2018-06-01T20:17:47.949Z,98.50
2018-06-01T20:21:41.523Z,98.40
2018-06-01T20:25:35.472Z,98.40
2018-06-01T20:29:29.965Z,98.40
2018-06-01T20:33:23.202Z,98.50
2018-06-01T20:37:17.203Z,98.30
2018-06-01T20:45:22.225Z,99.30
2018-06-01T20:49:16.353Z,99.90
2018-06-01T20:53:09.624Z,99.90
2018-06-01T20:57:02.795Z,99.90
2018-06-01T21:00:56.009Z,99.90
2018-06-01T21:04:51.898Z,99.80
2018-06-01T21:08:47.703Z,99.80
2018-06-01T21:12:40.927Z,99.20
2018-06-01T21:16:34.954Z,99.10
2018-06-01T21:20:28.083Z,98.90
2018-06-01T21:24:21.237Z,98.90
2018-06-01T21:28:14.787Z,99.00
2018-06-01T21:32:07.903Z,99.30
2018-06-01T21:36:01.034Z,99.30
2018-06-01T21:39:55.185Z,99.50
2018-06-01T21:43:48.638Z,99.70
2018-06-01T21:47:41.909Z,99.40
2018-06-01T21:51:35.092Z,99.10
2018-06-01T21:55:27.763Z,99.20
2018-06-01T21:59:20.888Z,99.00
2018-06-01T22:03:14.108Z,98.80
2018-06-01T22:07:07.377Z,98.90
2018-06-01T22:11:01.179Z,99.10
2018-06-01T22:14:54.339Z,99.10
2018-06-01T22:18:48.331Z,99.20
2018-06-01T22:22:41.472Z,99.20
2018-06-01T22:26:34.655Z,99.10
2018-06-01T22:30:29.101Z,99.00
2018-06-01T22:34:22.340Z,99.30
2018-06-01T22:38:15.525Z,99.40
2018-06-01T22:42:08.664Z,99.10
2018-06-01T22:46:01.907Z,99.10
2018-06-01T22:49:55.021Z,99.20
2018-06-01T22:53:48.158Z,99.20
2018-06-01T22:57:42.143Z,99.40
2018-06-01T23:01:35.495Z,99.40
2018-06-01T23:05:28.713Z,99.40
2018-06-01T23:09:21.831Z,99.20
2018-06-01T23:13:15.782Z,99.20
2018-06-01T23:17:08.674Z,99.20
2018-06-01T23:21:02.559Z,99.60
2018-06-01T23:24:55.686Z,99.60
2018-06-01T23:28:48.806Z,99.50
2018-06-01T23:32:41.945Z,99.40
2018-06-01T23:36:35.020Z,99.50
2018-06-01T23:40:28.915Z,99.10
2018-06-01T23:44:22.096Z,99.10
2018-06-01T23:48:15.225Z,99.40
2018-06-01T23:52:09.176Z,99.10
2018-06-01T23:56:03.192Z,98.90
2018-06-01T23:59:57.924Z,98.90
